createdAt,value
2018-12-21T00:00:00.121Z,96.55
2018-12-21T00:02:27.525Z,95.81
2018-12-21T00:04:54.784Z,97.67
2018-12-21T00:07:22.004Z,97.03
2018-12-21T00:09:49.269Z,97.17
2018-12-21T00:12:33.408Z,95.99
2018-12-21T00:15:01.140Z,97.25
2018-12-21T00:17:34.506Z,97.25
2018-12-21T00:20:00.148Z,96.58
2018-12-21T00:22:27.404Z,97.68
2018-12-21T00:24:55.176Z,98.27
2018-12-21T00:27:22.573Z,98.04
2018-12-21T00:29:49.946Z,97.54
2018-12-21T00:32:23.124Z,97.86
2018-12-21T00:34:56.108Z,98.35
2018-12-21T00:37:29.116Z,98.61
2018-12-21T00:40:02.464Z,98.64
2018-12-21T00:42:39.208Z,97.70
2018-12-21T00:45:10.684Z,97.89
2018-12-21T00:47:37.924Z,98.34
2018-12-21T00:50:06.331Z,98.70
2018-12-21T00:52:34.187Z,99.11
2018-12-21T00:55:01.481Z,99.18
2018-12-21T00:57:30.772Z,98.56
2018-12-21T00:59:58.272Z,99.76
2018-12-21T01:02:25.605Z,99.45
2018-12-21T01:04:52.970Z,99.24
2018-12-21T01:07:20.208Z,98.74
2018-12-21T01:09:47.564Z,98.31
2018-12-21T01:12:15.220Z,97.89
2018-12-21T01:14:42.779Z,98.35
2018-12-21T01:17:09.984Z,98.70
2018-12-21T01:19:37.256Z,97.47
2018-12-21T01:22:05.399Z,98.15
2018-12-21T01:24:32.608Z,98.94
2018-12-21T01:26:59.821Z,98.76
2018-12-21T01:29:27.052Z,98.68
2018-12-21T01:31:54.247Z,97.87
2018-12-21T01:34:21.473Z,98.04
2018-12-21T01:36:48.783Z,98.34
2018-12-21T01:39:15.985Z,98.28
2018-12-21T01:41:43.324Z,98.16
2018-12-21T01:44:12.335Z,96.87
2018-12-21T01:46:39.749Z,97.73
2018-12-21T01:49:06.980Z,97.96
2018-12-21T01:51:34.192Z,97.33
2018-12-21T01:54:01.392Z,98.83
2018-12-21T01:56:28.748Z,98.08
2018-12-21T01:58:55.944Z,98.37
2018-12-21T02:01:23.160Z,97.30
2018-12-21T02:03:50.508Z,97.65
2018-12-21T02:06:17.712Z,98.45
2018-12-21T02:08:44.936Z,97.59
2018-12-21T02:11:12.263Z,96.93
2018-12-21T02:13:39.470Z,97.77
2018-12-21T02:16:06.684Z,98.53
2018-12-21T02:18:34.061Z,98.38
2018-12-21T02:21:01.259Z,98.45
2018-12-21T02:23:28.524Z,98.37
2018-12-21T02:25:55.736Z,98.46
2018-12-21T02:28:23.204Z,98.13
2018-12-21T02:30:50.415Z,98.09
2018-12-21T02:33:17.668Z,97.48
2018-12-21T02:35:44.955Z,98.23
2018-12-21T02:38:12.160Z,97.63
2018-12-21T02:40:39.400Z,96.91
2018-12-21T02:43:06.606Z,98.00
2018-12-21T02:45:33.958Z,97.89
2018-12-21T02:48:01.157Z,97.17
2018-12-21T02:50:28.386Z,97.71
2018-12-21T02:52:55.616Z,97.94
2018-12-21T02:55:22.868Z,98.30
2018-12-21T02:57:50.072Z,98.15
2018-12-21T03:00:17.317Z,98.81
2018-12-21T03:02:44.653Z,98.98
2018-12-21T03:05:12.016Z,99.05
2018-12-21T03:07:39.213Z,98.70
2018-12-21T03:10:06.934Z,99.33
2018-12-21T03:12:34.158Z,97.40
2018-12-21T03:15:01.631Z,97.77
2018-12-21T03:17:28.869Z,97.84
2018-12-21T03:19:56.092Z,97.65
2018-12-21T03:22:23.352Z,97.07
2018-12-21T03:24:50.569Z,97.17
2018-12-21T03:27:17.792Z,97.52
2018-12-21T03:29:45.056Z,98.35
2018-12-21T03:32:12.278Z,96.89
2018-12-21T03:34:39.490Z,97.14
2018-12-21T03:37:07.728Z,98.05
2018-12-21T03:39:34.980Z,97.49
2018-12-21T03:42:02.196Z,97.19
2018-12-21T03:44:29.467Z,97.62
2018-12-21T03:46:56.688Z,97.82
2018-12-21T03:49:23.918Z,98.31
2018-12-21T03:51:51.376Z,97.78
2018-12-21T03:54:18.584Z,98.13
2018-12-21T03:56:46.938Z,97.67
2018-12-21T03:59:14.169Z,97.83
2018-12-21T04:01:41.395Z,97.48
2018-12-21T04:04:08.696Z,97.56
2018-12-21T04:06:36.831Z,97.35
2018-12-21T04:09:05.721Z,97.90
2018-12-21T04:11:32.956Z,97.93
2018-12-21T04:14:00.214Z,97.84
2018-12-21T04:16:27.646Z,96.84
2018-12-21T04:18:54.874Z,97.88
2018-12-21T04:21:22.113Z,97.56
2018-12-21T04:23:49.357Z,97.51
2018-12-21T04:26:16.576Z,98.55
2018-12-21T04:28:44.017Z,98.13
2018-12-21T04:31:11.233Z,97.99
2018-12-21T04:33:38.448Z,98.74
2018-12-21T04:36:05.693Z,98.61
2018-12-21T04:38:32.986Z,97.92
2018-12-21T04:41:00.376Z,98.22
2018-12-21T04:43:29.214Z,98.50
2018-12-21T04:45:56.633Z,98.89
2018-12-21T04:48:23.984Z,98.22
2018-12-21T04:50:51.196Z,99.22
2018-12-21T04:53:18.408Z,98.49
2018-12-21T04:55:45.696Z,98.69
2018-12-21T04:58:12.920Z,98.82
2018-12-21T05:00:40.899Z,99.22
2018-12-21T05:03:08.228Z,100.00
2018-12-21T05:05:35.460Z,99.57
2018-12-21T05:08:02.751Z,99.92
2018-12-21T05:10:30.091Z,99.88
2018-12-21T05:12:57.332Z,99.96
2018-12-21T05:15:24.580Z,100.00
2018-12-21T05:17:51.824Z,100.00
2018-12-21T05:20:19.092Z,100.00
2018-12-21T05:22:52.186Z,99.63
2018-12-21T05:25:15.556Z,100.00
2018-12-21T05:27:42.792Z,100.00
2018-12-21T05:30:10.041Z,99.53
2018-12-21T05:32:37.289Z,99.31
2018-12-21T05:35:04.928Z,99.88
2018-12-21T05:37:32.257Z,99.31
2018-12-21T05:39:59.492Z,99.39
2018-12-21T05:42:26.716Z,98.17
2018-12-21T05:44:54.016Z,99.33
2018-12-21T05:47:21.321Z,98.99
2018-12-21T05:49:48.556Z,98.88
2018-12-21T05:52:15.808Z,98.09
2018-12-21T05:54:43.037Z,98.80
2018-12-21T05:57:10.389Z,98.49
2018-12-21T05:59:38.881Z,98.79
2018-12-21T06:02:06.113Z,98.51
2018-12-21T06:04:33.324Z,98.72
2018-12-21T06:07:00.561Z,98.06
2018-12-21T06:09:27.782Z,98.63
2018-12-21T06:11:55.237Z,97.09
2018-12-21T06:14:22.460Z,97.24
2018-12-21T06:16:49.705Z,96.56
2018-12-21T06:19:17.000Z,97.59
2018-12-21T06:21:44.232Z,97.64
2018-12-21T06:24:11.524Z,97.96
2018-12-21T06:26:40.680Z,98.04
2018-12-21T06:29:08.046Z,98.93
2018-12-21T06:31:35.299Z,98.51
2018-12-21T06:34:02.524Z,98.83
2018-12-21T06:36:29.780Z,98.97
2018-12-21T06:38:57.020Z,98.72
2018-12-21T06:41:24.262Z,98.25
2018-12-21T06:43:51.509Z,97.83
2018-12-21T06:46:18.775Z,97.87
2018-12-21T06:48:47.080Z,98.18
2018-12-21T06:51:14.360Z,98.21
2018-12-21T06:53:41.590Z,98.03
2018-12-21T06:56:08.864Z,98.04
2018-12-21T06:58:36.116Z,98.50
2018-12-21T07:01:03.381Z,97.61
2018-12-21T07:03:30.604Z,97.76
2018-12-21T07:05:57.848Z,97.18
2018-12-21T07:08:25.065Z,96.23
2018-12-21T07:10:52.432Z,97.59
2018-12-21T07:13:19.795Z,96.79
2018-12-21T07:15:47.049Z,98.10
2018-12-21T07:18:14.284Z,97.50
2018-12-21T07:20:41.663Z,96.67
2018-12-21T07:23:08.904Z,96.81
2018-12-21T07:25:36.148Z,97.25
2018-12-21T07:28:03.471Z,97.09
2018-12-21T07:30:30.709Z,96.30
2018-12-21T07:32:57.971Z,96.00
2018-12-21T07:35:25.316Z,97.61
2018-12-21T07:37:52.688Z,96.36
2018-12-21T07:40:19.960Z,96.41
2018-12-21T07:42:47.212Z,96.68
2018-12-21T07:45:14.520Z,96.60
2018-12-21T07:47:41.769Z,96.94
2018-12-21T07:50:09.658Z,97.47
2018-12-21T07:52:37.036Z,96.35
2018-12-21T07:55:06.861Z,97.44
2018-12-21T07:57:34.144Z,98.25
2018-12-21T08:00:01.372Z,98.57
2018-12-21T08:02:28.760Z,98.86
2018-12-21T08:04:57.008Z,98.68
2018-12-21T08:07:25.320Z,97.15
2018-12-21T08:09:52.549Z,96.78
2018-12-21T08:12:19.809Z,96.07
2018-12-21T08:14:47.044Z,95.90
2018-12-21T08:17:14.296Z,95.61
2018-12-21T08:19:41.653Z,97.21
2018-12-21T08:22:08.900Z,97.79
2018-12-21T08:24:36.255Z,96.86
2018-12-21T08:27:03.629Z,97.30
2018-12-21T08:29:31.096Z,96.81
2018-12-21T08:31:58.360Z,96.39
2018-12-21T08:34:25.608Z,97.48
2018-12-21T08:36:52.849Z,96.67
2018-12-21T08:39:20.101Z,98.04
2018-12-21T08:41:47.369Z,96.79
2018-12-21T08:44:14.618Z,95.53
2018-12-21T08:46:41.849Z,97.17
2018-12-21T08:49:09.078Z,97.84
2018-12-21T08:51:36.488Z,97.97
2018-12-21T08:54:03.853Z,96.26
2018-12-21T08:56:31.084Z,97.44
2018-12-21T08:58:58.309Z,97.81
2018-12-21T09:01:25.568Z,96.87
2018-12-21T09:03:52.800Z,98.17
2018-12-21T09:06:20.200Z,97.38
2018-12-21T09:08:47.445Z,96.96
2018-12-21T09:11:14.728Z,97.23
2018-12-21T09:13:41.964Z,96.89
2018-12-21T09:16:09.312Z,96.77
2018-12-21T09:18:36.732Z,96.57
2018-12-21T09:21:04.092Z,96.39
2018-12-21T09:23:31.314Z,96.70
2018-12-21T09:25:58.672Z,95.91
2018-12-21T09:28:26.040Z,95.80
2018-12-21T09:30:53.284Z,95.19
2018-12-21T09:33:20.524Z,95.12
2018-12-21T09:35:47.926Z,96.55
2018-12-21T09:38:15.280Z,96.12
2018-12-21T09:40:42.629Z,95.44
2018-12-21T09:43:10.017Z,94.73
2018-12-21T09:45:37.301Z,94.86
2018-12-21T09:48:04.663Z,95.48
2018-12-21T09:50:32.252Z,96.45
2018-12-21T09:52:59.600Z,96.10
2018-12-21T09:55:26.832Z,94.67
2018-12-21T09:57:54.093Z,95.49
2018-12-21T10:00:21.364Z,95.37
2018-12-21T10:02:48.608Z,93.48
2018-12-21T10:05:16.477Z,95.04
2018-12-21T10:07:43.888Z,94.66
2018-12-21T10:10:12.116Z,96.60
2018-12-21T10:12:39.388Z,95.98
2018-12-21T10:15:07.984Z,95.84
2018-12-21T10:17:35.212Z,94.45
2018-12-21T10:20:02.553Z,96.63
2018-12-21T10:22:29.905Z,95.26
2018-12-21T10:24:57.125Z,95.00
2018-12-21T10:27:24.466Z,94.81
2018-12-21T10:29:51.700Z,96.02
2018-12-21T10:32:18.949Z,95.85
2018-12-21T10:34:46.184Z,96.38
2018-12-21T10:37:13.546Z,95.81
2018-12-21T10:39:40.791Z,95.71
2018-12-21T10:42:08.040Z,96.07
2018-12-21T10:44:35.281Z,96.51
2018-12-21T10:47:02.503Z,96.57
2018-12-21T10:49:32.037Z,96.33
2018-12-21T10:51:58.992Z,96.10
2018-12-21T10:54:26.939Z,97.84
2018-12-21T10:56:54.566Z,97.06
2018-12-21T10:59:21.820Z,94.70
2018-12-21T11:01:49.057Z,95.89
2018-12-21T11:04:16.332Z,95.96
2018-12-21T11:06:43.560Z,95.14
2018-12-21T11:09:10.810Z,93.89
2018-12-21T11:11:38.036Z,94.48
2018-12-21T11:14:05.272Z,96.86
2018-12-21T11:16:32.500Z,97.09
2018-12-21T11:18:59.744Z,95.34
2018-12-21T11:21:26.964Z,94.63
2018-12-21T11:23:54.325Z,94.22
2018-12-21T11:26:21.564Z,96.19
2018-12-21T11:28:48.792Z,96.92
2018-12-21T11:31:16.008Z,97.59
2018-12-21T11:33:44.384Z,97.87
2018-12-21T11:36:11.836Z,96.76
2018-12-21T11:38:39.072Z,96.01
2018-12-21T11:41:06.312Z,94.07
2018-12-21T11:43:35.349Z,96.58
2018-12-21T11:46:02.861Z,96.14
2018-12-21T11:48:30.105Z,97.26
2018-12-21T11:50:58.424Z,96.24
2018-12-21T11:53:25.668Z,96.15
2018-12-21T11:55:52.916Z,97.18
2018-12-21T11:58:20.168Z,96.58
2018-12-21T12:00:47.383Z,95.59
2018-12-21T12:03:14.628Z,95.67
2018-12-21T12:05:41.868Z,96.75
2018-12-21T12:08:09.261Z,96.84
2018-12-21T12:10:36.495Z,94.78
2018-12-21T12:13:04.080Z,95.71
2018-12-21T12:15:31.635Z,96.64
2018-12-21T12:17:58.881Z,97.17
2018-12-21T12:20:26.104Z,97.16
2018-12-21T12:22:53.317Z,96.86
2018-12-21T12:25:20.681Z,95.96
2018-12-21T12:27:48.028Z,95.81
2018-12-21T12:30:15.291Z,95.81
2018-12-21T12:32:42.512Z,94.79
2018-12-21T12:35:10.817Z,95.95
2018-12-21T12:37:38.052Z,97.25
2018-12-21T12:40:07.260Z,97.28
2018-12-21T12:42:34.788Z,96.12
2018-12-21T12:45:02.044Z,98.26
2018-12-21T12:47:29.384Z,97.51
2018-12-21T12:49:57.728Z,97.02
2018-12-21T12:52:24.987Z,96.30
2018-12-21T12:54:52.237Z,98.53
2018-12-21T12:57:19.468Z,97.47
2018-12-21T13:02:40.192Z,99.23
2018-12-21T13:05:08.843Z,99.51
2018-12-21T13:07:37.065Z,99.79
2018-12-21T13:10:06.664Z,100.00
2018-12-21T13:12:33.928Z,100.00
2018-12-21T13:15:02.178Z,99.64
2018-12-21T13:17:29.569Z,99.20
2018-12-21T13:19:56.817Z,99.43
2018-12-21T13:22:24.665Z,100.00
2018-12-21T13:24:52.224Z,99.66
2018-12-21T13:27:19.784Z,100.00
2018-12-21T13:29:47.001Z,99.90
2018-12-21T13:32:14.393Z,99.75
2018-12-21T13:34:41.645Z,100.00
2018-12-21T13:37:09.566Z,100.00
2018-12-21T13:39:36.900Z,100.00
2018-12-21T13:42:04.439Z,100.00
2018-12-21T13:44:31.701Z,100.00
2018-12-21T13:46:59.124Z,100.00
2018-12-21T13:49:26.360Z,98.65
2018-12-21T13:51:53.622Z,98.34
2018-12-21T13:54:20.904Z,99.74
2018-12-21T13:56:48.230Z,99.72
2018-12-21T13:59:15.793Z,99.52
2018-12-21T14:01:43.097Z,99.59
2018-12-21T14:04:10.320Z,100.00
2018-12-21T14:06:37.547Z,99.16
2018-12-21T14:09:06.722Z,99.04
2018-12-21T14:11:34.036Z,99.99
2018-12-21T14:14:01.266Z,100.00
2018-12-21T14:16:28.540Z,99.31
2018-12-21T14:18:55.797Z,99.99
2018-12-21T14:21:23.376Z,99.84
2018-12-21T14:23:50.597Z,99.78
2018-12-21T14:26:17.849Z,100.00
2018-12-21T14:28:45.080Z,100.00
2018-12-21T14:31:12.909Z,100.00
2018-12-21T14:33:41.991Z,100.00
2018-12-21T14:36:09.225Z,99.93
2018-12-21T14:38:36.469Z,99.50
2018-12-21T14:41:04.157Z,99.75
2018-12-21T14:43:31.558Z,99.72
2018-12-21T14:45:58.837Z,98.21
2018-12-21T14:48:26.081Z,98.31
2018-12-21T14:50:53.621Z,98.88
2018-12-21T14:53:20.858Z,99.54
2018-12-21T14:55:48.080Z,100.00
2018-12-21T14:58:15.312Z,100.00
2018-12-21T15:00:42.540Z,99.82
2018-12-21T15:03:09.763Z,99.41
2018-12-21T15:05:38.104Z,99.57
2018-12-21T15:08:05.388Z,100.00
2018-12-21T15:10:32.607Z,100.00
2018-12-21T15:12:59.973Z,99.82
2018-12-21T15:15:27.200Z,100.00
2018-12-21T15:17:54.421Z,100.00
2018-12-21T15:20:21.699Z,99.35
2018-12-21T15:22:49.340Z,100.00
2018-12-21T15:25:16.572Z,100.00
2018-12-21T15:27:43.865Z,99.14
2018-12-21T15:30:11.282Z,100.00
2018-12-21T15:32:39.062Z,100.00
2018-12-21T15:35:06.660Z,100.00
2018-12-21T15:37:33.892Z,100.00
2018-12-21T15:40:01.129Z,100.00
2018-12-21T15:42:28.388Z,100.00
2018-12-21T15:44:55.596Z,100.00
2018-12-21T15:47:22.816Z,100.00
2018-12-21T15:49:50.064Z,100.00
2018-12-21T15:52:17.669Z,100.00
2018-12-21T15:54:44.892Z,100.00
2018-12-21T15:57:12.143Z,100.00
2018-12-21T15:59:39.361Z,100.00
2018-12-21T16:02:06.629Z,100.00
2018-12-21T16:04:34.105Z,100.00
2018-12-21T16:07:01.350Z,100.00
2018-12-21T16:09:28.853Z,100.00
2018-12-21T16:11:56.108Z,100.00
2018-12-21T16:14:23.344Z,100.00
2018-12-21T16:16:50.900Z,100.00
2018-12-21T16:19:18.170Z,100.00
2018-12-21T16:21:45.418Z,100.00
2018-12-21T16:24:12.660Z,100.00
2018-12-21T16:26:40.048Z,100.00
2018-12-21T16:29:07.397Z,100.00
2018-12-21T16:31:34.653Z,100.00
2018-12-21T16:34:01.864Z,100.00
2018-12-21T16:36:29.318Z,100.00
2018-12-21T16:38:56.629Z,100.00
2018-12-21T16:41:23.885Z,100.00
2018-12-21T16:43:51.216Z,100.00
2018-12-21T16:46:18.873Z,100.00
2018-12-21T16:48:47.311Z,100.00
2018-12-21T16:52:18.388Z,100.00
2018-12-21T16:54:45.633Z,100.00
2018-12-21T16:57:12.925Z,100.00
2018-12-21T16:59:40.176Z,100.00
2018-12-21T17:02:07.409Z,100.00
2018-12-21T17:04:35.602Z,100.00
2018-12-21T17:07:03.077Z,100.00
2018-12-21T17:09:30.321Z,100.00
2018-12-21T17:11:57.573Z,100.00
2018-12-21T17:14:24.804Z,100.00
2018-12-21T17:16:52.024Z,100.00
2018-12-21T17:19:20.745Z,100.00
2018-12-21T17:21:47.988Z,100.00
2018-12-21T17:24:15.241Z,100.00
2018-12-21T17:26:44.372Z,100.00
2018-12-21T17:29:11.656Z,100.00
2018-12-21T17:31:38.876Z,100.00
2018-12-21T17:34:06.144Z,100.00
2018-12-21T17:36:33.466Z,100.00
2018-12-21T17:39:00.719Z,100.00
2018-12-21T17:41:28.043Z,100.00
2018-12-21T17:43:55.289Z,100.00
2018-12-21T17:46:22.512Z,100.00
2018-12-21T17:48:49.747Z,100.00
2018-12-21T17:51:19.085Z,100.00
2018-12-21T17:53:46.465Z,100.00
2018-12-21T17:56:13.729Z,100.00
2018-12-21T17:58:40.968Z,100.00
2018-12-21T18:01:08.232Z,100.00
2018-12-21T18:03:41.485Z,100.00
2018-12-21T18:06:09.760Z,100.00
2018-12-21T18:08:37.001Z,100.00
2018-12-21T18:11:04.269Z,99.44
2018-12-21T18:13:31.497Z,99.91
2018-12-21T18:16:00.836Z,100.00
2018-12-21T18:18:29.060Z,100.00
2018-12-21T18:20:56.473Z,99.90
2018-12-21T18:23:25.549Z,99.61
2018-12-21T18:25:52.784Z,100.00
2018-12-21T18:28:24.877Z,100.00
2018-12-21T18:30:57.308Z,100.00
2018-12-21T18:33:25.109Z,100.00
2018-12-21T18:35:52.369Z,100.00
2018-12-21T18:38:22.128Z,100.00
2018-12-21T18:40:50.436Z,100.00
2018-12-21T18:43:17.717Z,100.00
2018-12-21T18:45:44.972Z,100.00
2018-12-21T18:48:12.249Z,100.00
2018-12-21T18:50:40.571Z,100.00
2018-12-21T18:53:07.820Z,100.00
2018-12-21T18:55:35.420Z,100.00
2018-12-21T18:58:02.671Z,100.00
2018-12-21T19:00:29.912Z,100.00
2018-12-21T19:02:57.364Z,100.00
2018-12-21T19:05:24.587Z,100.00
2018-12-21T19:07:51.821Z,100.00
2018-12-21T19:10:19.256Z,100.00
2018-12-21T19:12:46.529Z,100.00
2018-12-21T19:15:16.093Z,100.00
2018-12-21T19:17:44.861Z,100.00
2018-12-21T19:20:12.352Z,100.00
2018-12-21T19:22:39.836Z,100.00
2018-12-21T19:25:09.776Z,100.00
2018-12-21T19:27:38.159Z,100.00
2018-12-21T19:30:08.352Z,100.00
2018-12-21T19:32:40.544Z,100.00
2018-12-21T19:35:08.888Z,100.00
2018-12-21T19:37:36.156Z,100.00
2018-12-21T19:40:04.737Z,100.00
2018-12-21T19:42:32.085Z,100.00
2018-12-21T19:44:59.556Z,100.00
2018-12-21T19:47:26.909Z,100.00
2018-12-21T19:49:55.148Z,100.00
2018-12-21T19:52:22.424Z,100.00
2018-12-21T19:54:54.097Z,100.00
2018-12-21T19:57:21.324Z,100.00
2018-12-21T19:59:48.910Z,100.00
2018-12-21T20:02:16.312Z,100.00
2018-12-21T20:04:43.570Z,100.00
2018-12-21T20:07:11.040Z,100.00
2018-12-21T20:09:38.288Z,100.00
2018-12-21T20:12:06.584Z,100.00
2018-12-21T20:14:33.852Z,100.00
2018-12-21T20:17:01.134Z,100.00
2018-12-21T20:19:28.372Z,100.00
2018-12-21T20:21:55.624Z,100.00
2018-12-21T20:24:27.680Z,100.00
2018-12-21T20:26:59.841Z,100.00
2018-12-21T20:29:27.240Z,100.00
2018-12-21T20:31:54.480Z,100.00
2018-12-21T20:34:21.721Z,100.00
2018-12-21T20:36:48.967Z,100.00
2018-12-21T20:39:20.074Z,100.00
2018-12-21T20:41:47.313Z,100.00
2018-12-21T20:44:14.537Z,100.00
2018-12-21T20:46:41.779Z,100.00
2018-12-21T20:49:09.044Z,100.00
2018-12-21T20:51:36.284Z,100.00
2018-12-21T20:54:03.540Z,100.00
2018-12-21T20:56:30.805Z,100.00
2018-12-21T20:59:03.425Z,100.00
2018-12-21T21:01:30.672Z,100.00
2018-12-21T21:03:57.920Z,100.00
2018-12-21T21:06:25.140Z,100.00
2018-12-21T21:08:52.967Z,100.00
2018-12-21T21:11:24.347Z,100.00
2018-12-21T21:13:49.481Z,100.00
2018-12-21T21:16:16.772Z,100.00
2018-12-21T21:18:44.708Z,100.00
2018-12-21T21:21:11.944Z,100.00
2018-12-21T21:23:39.332Z,100.00
2018-12-21T21:26:06.672Z,100.00
2018-12-21T21:28:34.038Z,100.00
2018-12-21T21:31:01.280Z,100.00
2018-12-21T21:33:28.516Z,100.00
2018-12-21T21:35:55.749Z,100.00
2018-12-21T21:38:23.004Z,100.00
2018-12-21T21:40:50.265Z,100.00
2018-12-21T21:43:19.003Z,100.00
2018-12-21T21:45:46.266Z,100.00
2018-12-21T21:48:13.508Z,100.00
2018-12-21T21:50:40.812Z,100.00
2018-12-21T21:53:10.696Z,100.00
2018-12-21T21:55:38.421Z,100.00
2018-12-21T22:05:05.654Z,100.00
2018-12-21T22:07:33.075Z,100.00
2018-12-21T22:10:00.328Z,100.00
2018-12-21T22:12:27.557Z,100.00
2018-12-21T22:14:55.874Z,100.00
2018-12-21T22:17:23.083Z,100.00
2018-12-21T22:19:50.344Z,100.00
2018-12-21T22:22:17.561Z,100.00
2018-12-21T22:24:44.801Z,100.00
2018-12-21T22:27:12.017Z,100.00
2018-12-21T22:29:39.293Z,100.00
2018-12-21T22:32:06.524Z,100.00
2018-12-21T22:34:33.764Z,100.00
2018-12-21T22:37:01.044Z,100.00
2018-12-21T22:39:28.297Z,100.00
2018-12-21T22:41:55.526Z,100.00
2018-12-21T22:44:22.775Z,100.00
2018-12-21T22:46:50.628Z,100.00
2018-12-21T22:49:18.888Z,100.00
2018-12-21T22:51:46.630Z,100.00
2018-12-21T22:54:13.951Z,100.00
2018-12-21T22:56:42.218Z,100.00
2018-12-21T22:59:10.647Z,100.00
2018-12-21T23:01:37.952Z,100.00
2018-12-21T23:04:05.304Z,100.00
2018-12-21T23:06:33.587Z,100.00
2018-12-21T23:09:01.870Z,100.00
2018-12-21T23:11:30.742Z,100.00
2018-12-21T23:13:58.416Z,100.00
2018-12-21T23:16:25.788Z,100.00
2018-12-21T23:18:53.041Z,100.00
2018-12-21T23:21:20.329Z,100.00
2018-12-21T23:23:47.560Z,100.00
2018-12-21T23:26:14.872Z,100.00
2018-12-21T23:28:43.136Z,100.00
2018-12-21T23:31:11.445Z,100.00
2018-12-21T23:33:38.691Z,100.00
2018-12-21T23:36:05.964Z,100.00
2018-12-21T23:38:35.345Z,100.00
2018-12-21T23:41:02.596Z,100.00
2018-12-21T23:43:29.925Z,100.00
2018-12-21T23:45:58.755Z,100.00
2018-12-21T23:48:26.004Z,100.00
2018-12-21T23:50:53.249Z,100.00
2018-12-21T23:53:20.480Z,100.00
2018-12-21T23:55:47.728Z,100.00
2018-12-21T23:58:14.944Z,100.00
